Time;durP1;ratioP1;P1;durP2;ratioP2;P2;SDS_P1;SDS_P2;PMS_P1;PMS_P2;Temp;Humidity;BMP_temperature;BMP_pressure;BME280_temperature;BME280_humidity;BME280_pressure;Samples;Min_cycle;Max_cycle;Signal;HPM_P1;HPM_P2
2022/09/06 09:33:39;;;;;;;9.18;5.53;;;30.90;1.00;;;;;;5008725;22;20444;-63
2022/09/06 09:36:12;;;;;;;13.90;5.63;;;30.30;35.80;;;;;;4993413;28;20402;-61
2022/09/06 09:38:51;;;;;;;9.73;4.50;;;30.40;41.60;;;;;;4992944;28;20465;-64
2022/09/06 09:41:31;;;;;;;11.35;5.00;;;30.80;55.10;;;;;;4993406;28;20506;-61
2022/09/06 09:44:16;;;;;;;11.90;4.60;;;31.40;70.50;;;;;;4992623;28;20375;-62
2022/09/06 09:46:42;;;;;;;8.50;4.53;;;31.60;64.60;;;;;;4992470;28;20437;-62
2022/09/06 09:49:13;;;;;;;9.85;4.97;;;;;;;;;;4975778;28;20910;-58
2022/09/06 09:51:43;;;;;;;9.27;4.57;;;;;;;;;;4992594;28;20736;-62
2022/09/06 09:54:14;;;;;;;9.48;5.50;;;;;;;;;;4993117;28;20910;-59
2022/09/06 09:56:48;;;;;;;9.90;4.18;;;33.90;99.90;;;;;;4992596;28;20433;-62
2022/09/06 09:59:28;;;;;;;9.10;4.83;;;34.20;99.90;;;;;;4993187;28;20423;-59
2022/09/06 10:02:15;;;;;;;11.20;4.70;;;34.10;99.90;;;;;;4992448;28;20426;-59
2022/09/06 10:04:46;;;;;;;10.07;4.63;;;34.10;93.20;;;;;;4992444;28;20938;-62
2022/09/06 10:07:20;;;;;;;9.07;5.10;;;34.10;94.20;;;;;;4992738;28;20474;-59
2022/09/06 10:10:07;;;;;;;9.57;5.50;;;34.10;95.00;;;;;;4991384;28;20729;-59
2022/09/06 10:12:38;;;;;;;8.80;4.80;;;34.00;1.00;;;;;;4991360;28;20403;-61
2022/09/06 10:15:09;;;;;;;11.20;5.10;;;33.60;1.00;;;;;;5010219;28;20399;-60
2022/09/06 10:17:46;;;;;;;9.65;5.90;;;33.70;19.40;;;;;;5012619;28;20475;-60
2022/09/06 10:20:12;;;;;;;10.32;5.40;;;34.10;99.90;;;;;;5012439;28;20869;-60
2022/09/06 10:23:00;;;;;;;10.30;5.40;;;34.60;99.90;;;;;;5012246;28;20385;-62
2022/09/06 10:25:34;;;;;;;10.38;4.90;;;35.20;99.90;;;;;;5011926;28;20811;-60
2022/09/06 10:28:18;;;;;;;10.70;5.95;;;34.50;99.90;;;;;;5011137;28;20392;-60
2022/09/06 10:31:10;;;;;;;10.93;5.45;;;34.20;1.00;;;;;;5011149;28;20400;-60
2022/09/06 10:34:13;;;;;;;10.60;5.40;;;33.70;1.00;;;;;;5011434;28;20448;-60
2022/09/06 10:36:56;;;;;;;8.93;5.00;;;33.30;1.00;;;;;;5011197;28;20388;-62
2022/09/06 10:39:49;;;;;;;10.80;5.63;;;32.80;1.00;;;;;;5012109;28;20384;-60
2022/09/06 10:42:20;;;;;;;8.20;5.00;;;32.50;1.00;;;;;;5011724;28;20462;-60
2022/09/06 10:45:22;;;;;;;9.55;5.03;;;32.40;1.00;;;;;;5011118;28;20385;-60
2022/09/06 10:48:10;;;;;;;10.95;5.10;;;32.00;1.00;;;;;;5011132;28;20393;-60
2022/09/06 10:50:44;;;;;;;12.15;5.28;;;31.70;1.00;;;;;;5011621;28;20393;-60
2022/09/06 10:53:22;;;;;;;11.25;5.43;;;31.60;1.00;;;;;;5011863;28;20723;-60
2022/09/06 10:56:00;;;;;;;9.75;5.15;;;31.90;1.00;;;;;;5010905;28;20842;-60
2022/09/06 10:58:30;;;;;;;8.80;5.60;;;32.00;1.00;;;;;;5011214;28;20901;-59
2022/09/06 11:00:56;;;;;;;8.77;5.20;;;31.40;1.00;;;;;;5010704;28;20451;-60
2022/09/06 11:03:36;;;;;;;11.00;6.10;;;31.40;1.00;;;;;;5010684;28;20401;-60
2022/09/06 11:06:07;;;;;;;8.18;4.90;;;31.40;1.00;;;;;;5010724;28;20705;-60
2022/09/06 11:09:01;;;;;;;9.55;4.72;;;31.60;1.00;;;;;;5011154;28;20388;-60
2022/09/06 11:11:49;;;;;;;10.90;5.30;;;31.60;1.00;;;;;;5011549;28;20389;-60
2022/09/06 11:14:16;;;;;;;9.27;5.10;;;31.90;1.00;;;;;;4999716;28;20378;-60
2022/09/06 11:16:52;;;;;;;9.60;6.18;;;32.00;1.00;;;;;;4991003;28;20379;-62
2022/09/06 11:19:26;;;;;;;11.53;4.80;;;32.20;1.00;;;;;;4991533;28;20421;-60
2022/09/06 11:22:01;;;;;;;9.65;5.60;;;32.50;1.00;;;;;;4990817;28;20509;-60
2022/09/06 11:25:03;;;;;;;10.73;5.15;;;32.30;1.00;;;;;;4991749;28;20453;-60
2022/09/06 11:27:29;;;;;;;10.65;5.68;;;32.20;1.00;;;;;;4991313;28;20761;-60
2022/09/06 11:29:55;;;;;;;8.90;5.10;;;32.60;1.00;;;;;;4990727;28;20395;-60
2022/09/06 11:32:34;;;;;;;11.55;5.63;;;32.90;1.00;;;;;;4990539;28;20418;-60
2022/09/06 11:35:06;;;;;;;9.20;5.00;;;32.90;1.00;;;;;;4990138;28;21029;-60
2022/09/06 11:37:42;;;;;;;10.00;5.07;;;33.10;1.00;;;;;;4991253;28;20383;-60
2022/09/06 11:40:16;;;;;;;9.13;5.13;;;32.90;1.00;;;;;;4973447;28;20402;-60
2022/09/06 11:42:46;;;;;;;16.60;5.80;;;32.60;1.00;;;;;;4990453;28;20861;-62
2022/09/06 11:45:22;;;;;;;11.88;5.55;;;32.20;1.00;;;;;;4989482;28;20864;-60
2022/09/06 11:47:50;;;;;;;11.95;5.40;;;31.90;1.00;;;;;;4988805;28;20822;-60
2022/09/06 11:50:26;;;;;;;9.70;5.93;;;31.40;1.00;;;;;;4971432;28;20486;-60
2022/09/06 11:53:01;;;;;;;9.10;5.65;;;31.60;1.00;;;;;;4990459;28;20433;-61
2022/09/06 11:55:40;;;;;;;9.40;5.03;;;31.60;1.00;;;;;;4977630;28;20416;-61
2022/09/06 11:58:41;;;;;;;10.50;4.70;;;31.70;1.00;;;;;;4983106;28;20401;-60
2022/09/06 12:01:15;;;;;;;9.32;4.40;;;31.70;1.00;;;;;;4975066;28;20449;-61
2022/09/06 12:03:46;;;;;;;7.50;4.40;;;31.50;1.00;;;;;;4987910;28;20387;-62
2022/09/06 12:06:20;;;;;;;9.02;4.70;;;31.40;1.00;;;;;;4984078;28;20564;-60
2022/09/06 12:08:47;;;;;;;11.10;4.80;;;31.50;1.00;;;;;;4970163;28;20388;-60
2022/09/06 12:11:25;;;;;;;9.15;4.32;;;31.50;1.00;;;;;;4977060;28;20916;-60
2022/09/06 12:13:59;;;;;;;9.18;4.30;;;31.30;1.00;;;;;;4997634;28;20400;-60
2022/09/06 12:16:56;;;;;;;8.77;4.50;;;31.10;1.00;;;;;;4991131;28;20891;-60
2022/09/06 12:19:49;;;;;;;8.70;5.40;;;30.80;1.00;;;;;;4971117;28;20547;-61
2022/09/06 12:22:27;;;;;;;9.40;4.32;;;30.60;1.00;;;;;;4970945;28;20878;-60
2022/09/06 12:24:58;;;;;;;9.27;4.00;;;30.80;1.00;;;;;;4976594;28;20862;-61
2022/09/06 12:27:25;;;;;;;11.27;4.70;;;30.30;1.00;;;;;;4976474;28;20384;-60
2022/09/06 12:29:57;;;;;;;10.50;4.87;;;30.00;1.00;;;;;;4976136;28;20412;-60
2022/09/06 12:32:40;;;;;;;8.43;4.70;;;30.00;1.00;;;;;;4978553;28;20770;-60
2022/09/06 12:35:13;;;;;;;9.95;4.38;;;29.90;1.00;;;;;;4976239;28;20489;-61
2022/09/06 12:37:55;;;;;;;10.18;5.10;;;29.90;1.00;;;;;;4979485;28;20422;-61
2022/09/06 12:40:23;;;;;;;8.80;4.47;;;29.50;1.00;;;;;;4980084;28;20436;-61
2022/09/06 12:42:52;;;;;;;7.60;3.55;;;29.10;1.00;;;;;;4969764;28;20739;-61
2022/09/06 12:45:20;;;;;;;8.38;3.70;;;29.00;23.80;;;;;;4970544;28;20393;-60
2022/09/06 12:47:46;;;;;;;8.30;3.60;;;28.70;50.50;;;;;;4973146;28;20404;-60
2022/09/06 12:50:22;;;;;;;8.27;3.38;;;28.70;83.50;;;;;;4961022;28;20456;-60
2022/09/06 12:52:54;;;;;;;11.80;3.72;;;28.60;71.30;;;;;;4980059;28;20392;-60
2022/09/06 12:55:33;;;;;;;10.05;3.75;;;28.40;99.90;;;;;;4980823;28;20389;-60
2022/09/06 12:58:04;;;;;;;8.90;3.55;;;28.30;99.90;;;;;;4979728;28;20752;-60
2022/09/06 13:00:36;;;;;;;9.18;3.45;;;28.40;99.90;;;;;;4981844;28;20382;-61
2022/09/06 13:03:20;;;;;;;7.87;3.70;;;28.50;99.90;;;;;;4983127;28;20475;-60
2022/09/06 13:05:46;;;;;;;7.88;3.75;;;28.90;99.90;;;;;;4984063;28;20395;-61
2022/09/06 13:08:23;;;;;;;8.30;4.50;;;29.20;99.90;;;;;;4982790;28;20387;-60
2022/09/06 13:10:49;;;;;;;10.27;3.65;;;29.20;99.90;;;;;;4981406;28;20850;-60
2022/09/06 13:13:21;;;;;;;8.68;4.20;;;29.10;99.90;;;;;;4980171;28;20473;-60
2022/09/06 13:15:47;;;;;;;9.15;4.50;;;29.00;99.90;;;;;;4983757;28;20418;-60
2022/09/06 13:18:36;;;;;;;8.70;4.00;;;29.00;99.90;;;;;;4988592;28;20951;-60
2022/09/06 13:21:10;;;;;;;8.52;4.38;;;28.80;99.90;;;;;;4983796;28;21088;-60
2022/09/06 13:23:45;;;;;;;8.10;4.13;;;29.00;99.90;;;;;;4979159;28;20394;-60
2022/09/06 13:26:11;;;;;;;8.50;3.50;;;29.10;99.90;;;;;;4975147;28;20504;-60
2022/09/06 13:28:37;;;;;;;14.90;4.80;;;29.20;99.90;;;;;;4974447;28;20405;-60
2022/09/06 13:31:20;;;;;;;9.07;4.00;;;29.10;99.90;;;;;;4976007;28;20463;-60
2022/09/06 13:33:55;;;;;;;9.40;4.47;;;29.10;99.90;;;;;;4953966;29;20397;-63
2022/09/06 13:36:31;;;;;;;7.57;4.28;;;29.30;99.90;;;;;;4961145;28;20937;-61
2022/09/06 13:38:58;;;;;;;9.10;4.40;;;29.50;99.90;;;;;;4971668;28;20835;-62
2022/09/06 13:41:24;;;;;;;8.93;4.13;;;29.40;99.90;;;;;;4971036;28;20427;-61
2022/09/06 13:44:15;;;;;;;8.73;4.03;;;29.10;99.90;;;;;;4969234;28;20996;-60
2022/09/06 13:46:41;;;;;;;11.40;3.60;;;29.00;99.90;;;;;;4956145;28;20422;-62
2022/09/06 13:49:07;;;;;;;10.00;3.47;;;28.80;99.90;;;;;;4966385;28;20420;-60
2022/09/06 13:51:33;;;;;;;8.02;3.65;;;28.40;99.90;;;;;;4968741;28;20416;-60
2022/09/06 13:54:10;;;;;;;13.75;3.83;;;27.80;99.90;;;;;;4966305;28;20397;-61
2022/09/06 13:56:36;;;;;;;10.43;3.08;;;27.60;99.90;;;;;;4954073;28;20405;-59
2022/09/06 13:59:03;;;;;;;9.67;3.57;;;27.20;99.90;;;;;;4955404;28;20425;-61
2022/09/06 14:01:29;;;;;;;9.82;3.60;;;27.30;99.90;;;;;;4967997;28;20906;-61
2022/09/06 14:03:55;;;;;;;8.05;3.63;;;27.30;99.90;;;;;;4967723;28;20702;-60
2022/09/06 14:06:20;;;;;;;9.40;3.83;;;27.30;99.90;;;;;;4965675;28;20402;-64
2022/09/06 14:08:46;;;;;;;11.55;3.60;;;27.10;99.90;;;;;;4964229;28;20405;-61
2022/09/06 14:11:12;;;;;;;8.90;3.10;;;27.00;99.90;;;;;;4966577;28;20483;-60
2022/09/06 14:13:38;;;;;;;8.40;3.10;;;26.90;99.90;;;;;;4960572;28;20412;-60
2022/09/06 14:16:04;;;;;;;11.88;3.50;;;26.80;99.90;;;;;;4956853;28;20414;-60
2022/09/06 14:18:30;;;;;;;7.30;2.73;;;26.60;99.90;;;;;;4959767;28;20392;-60
2022/09/06 14:20:57;;;;;;;10.80;3.20;;;26.60;99.90;;;;;;4960518;28;20436;-60
2022/09/06 14:23:24;;;;;;;10.55;3.58;;;26.40;99.90;;;;;;4959588;28;20465;-60
2022/09/06 14:25:58;;;;;;;9.05;3.10;;;26.30;99.90;;;;;;4959796;28;20410;-61
2022/09/06 14:28:24;;;;;;;8.57;3.20;;;26.20;99.90;;;;;;4958720;28;20422;-61
2022/09/06 14:30:50;;;;;;;8.40;3.58;;;26.10;99.90;;;;;;4954724;28;20441;-60
2022/09/06 14:33:20;;;;;;;9.88;3.15;;;26.10;99.90;;;;;;4969171;28;20870;-60
2022/09/06 14:35:46;;;;;;;11.80;3.70;;;26.10;99.90;;;;;;4971669;28;20475;-64
2022/09/06 14:38:11;;;;;;;10.77;3.80;;;25.90;99.90;;;;;;4973012;28;20395;-60
2022/09/06 14:40:38;;;;;;;9.73;3.40;;;25.80;99.90;;;;;;4972867;28;20782;-60
2022/09/06 14:43:05;;;;;;;10.07;3.50;;;25.60;1.00;;;;;;4971775;28;20415;-63
2022/09/06 14:45:34;;;;;;;7.90;3.53;;;25.60;1.00;;;;;;4972913;28;20388;-60
2022/09/06 14:47:59;;;;;;;11.52;3.50;;;25.30;1.00;;;;;;4971982;28;20388;-59
2022/09/06 14:50:25;;;;;;;9.95;3.30;;;25.20;99.90;;;;;;4972247;28;20408;-60
2022/09/06 14:52:51;;;;;;;10.27;3.80;;;25.10;99.90;;;;;;4976654;28;20904;-58
2022/09/06 14:55:16;;;;;;;9.07;3.87;;;25.10;99.90;;;;;;4991033;28;20385;-59
2022/09/06 14:57:42;;;;;;;9.07;3.40;;;25.10;99.90;;;;;;4995302;28;20479;-60
2022/09/06 15:00:09;;;;;;;9.20;3.70;;;25.10;99.90;;;;;;4987650;28;20413;-60
2022/09/06 15:02:36;;;;;;;10.90;3.28;;;24.90;1.00;;;;;;4976842;28;20479;-60
2022/09/06 15:05:02;;;;;;;10.32;3.60;;;24.70;99.90;;;;;;4972069;28;20874;-60
2022/09/06 15:07:29;;;;;;;10.70;2.70;;;24.70;99.90;;;;;;4975708;28;21048;-61
2022/09/06 15:09:54;;;;;;;7.00;2.80;;;24.50;27.90;;;;;;4990819;28;20397;-60
2022/09/06 15:12:20;;;;;;;7.40;2.40;;;24.40;99.90;;;;;;4999961;28;20399;-60
2022/09/06 15:14:46;;;;;;;8.70;2.50;;;24.40;99.90;;;;;;4993689;28;20454;-64
2022/09/06 15:17:11;;;;;;;8.70;2.70;;;24.40;99.90;;;;;;4989931;28;20405;-61
2022/09/06 15:19:37;;;;;;;10.30;2.80;;;23.50;99.90;;;;;;5004585;28;20389;-60
2022/09/06 15:22:05;;;;;;;9.20;3.10;;;24.60;99.90;;;;;;4995091;28;20471;-60
2022/09/06 15:24:31;;;;;;;6.95;2.80;;;24.60;99.90;;;;;;5000449;28;20408;-60
2022/09/06 15:26:57;;;;;;;7.30;2.60;;;24.70;99.90;;;;;;4996994;28;20477;-60
2022/09/06 15:29:23;;;;;;;9.57;2.90;;;24.90;99.90;;;;;;5003352;28;20409;-60
2022/09/06 15:31:49;;;;;;;8.90;3.00;;;25.00;1.00;;;;;;4995564;28;20458;-60
2022/09/06 15:34:23;;;;;;;8.80;2.50;;;25.00;99.90;;;;;;4995063;28;20704;-61
2022/09/06 15:36:50;;;;;;;7.43;2.25;;;25.20;8.10;;;;;;4989841;28;20559;-64
2022/09/06 15:39:16;;;;;;;7.63;1.70;;;25.50;1.00;;;;;;4985916;28;20398;-62
2022/09/06 15:41:42;;;;;;;7.63;2.42;;;25.90;1.00;;;;;;4985548;28;20551;-62
2022/09/06 15:44:16;;;;;;;9.55;2.60;;;26.00;1.00;;;;;;4985031;28;20412;-62
2022/09/06 15:46:58;;;;;;;5.90;2.10;;;26.40;1.00;;;;;;4985499;28;20744;-62
2022/09/06 15:49:31;;;;;;;8.50;2.65;;;26.50;1.00;;;;;;4987297;28;20431;-62
2022/09/06 15:51:59;;;;;;;6.40;2.20;;;26.70;1.00;;;;;;4985584;28;20409;-61
2022/09/06 15:57:12;;;;;;;8.75;2.50;;;26.40;1.00;;;;;;4986266;28;20469;-62
2022/09/06 15:59:38;;;;;;;8.60;2.50;;;26.60;1.00;;;;;;4986737;28;20890;-61
2022/09/06 16:02:04;;;;;;;7.40;2.73;;;26.70;1.00;;;;;;4981824;28;20515;-62
2022/09/06 16:04:30;;;;;;;8.00;2.60;;;26.80;1.00;;;;;;4972735;28;20487;-63
2022/09/06 16:06:55;;;;;;;6.20;2.10;;;26.10;99.90;;;;;;4973191;28;20482;-61
2022/09/06 16:09:21;;;;;;;7.40;2.28;;;26.80;99.90;;;;;;4979983;28;20757;-62
2022/09/06 16:11:46;;;;;;;7.10;2.40;;;26.50;99.90;;;;;;4979503;28;20384;-66
2022/09/06 16:14:14;;;;;;;7.95;2.65;;;26.50;99.90;;;;;;4981854;28;20837;-62
2022/09/06 16:16:40;;;;;;;8.50;2.10;;;26.50;99.90;;;;;;4986960;28;20402;-63
2022/09/06 16:19:06;;;;;;;6.75;2.00;;;26.40;99.90;;;;;;4989709;28;20690;-63
2022/09/06 16:21:33;;;;;;;8.03;2.47;;;26.40;1.00;;;;;;4981097;28;20416;-62
2022/09/06 16:24:01;;;;;;;10.95;2.70;;;26.40;1.00;;;;;;4986354;28;20474;-61
2022/09/06 16:26:33;;;;;;;8.53;2.80;;;26.20;1.00;;;;;;4990642;28;20386;-63
2022/09/06 16:29:00;;;;;;;9.20;2.85;;;26.20;1.00;;;;;;4989625;28;20469;-61
2022/09/06 16:31:27;;;;;;;8.60;3.10;;;26.10;1.00;;;;;;4990198;28;20394;-60
2022/09/06 16:33:53;;;;;;;8.50;2.40;;;26.20;1.00;;;;;;4989625;28;20505;-61
2022/09/06 16:36:20;;;;;;;7.50;2.80;;;26.40;1.00;;;;;;4989924;28;20890;-62
2022/09/06 16:38:47;;;;;;;9.43;2.85;;;26.50;1.00;;;;;;4979710;28;20472;-66
2022/09/06 16:41:16;;;;;;;7.30;2.65;;;26.60;99.90;;;;;;4979323;28;20486;-61
2022/09/06 16:43:42;;;;;;;7.60;2.40;;;26.70;99.90;;;;;;4979367;28;20861;-60
2022/09/06 16:46:08;;;;;;;8.30;2.67;;;26.90;99.90;;;;;;4980756;28;20439;-60
2022/09/06 16:48:34;;;;;;;7.60;2.70;;;27.10;99.90;;;;;;4978339;28;20878;-61
2022/09/06 16:51:14;;;;;;;8.10;2.30;;;27.10;99.90;;;;;;4974312;28;20465;-60
2022/09/06 16:53:42;;;;;;;9.18;2.80;;;27.10;99.90;;;;;;4981805;28;20415;-60
2022/09/06 16:56:09;;;;;;;10.77;2.70;;;27.30;99.90;;;;;;4978600;28;20382;-59
2022/09/06 16:58:35;;;;;;;7.28;2.50;;;27.40;99.90;;;;;;4988835;28;20460;-60
2022/09/06 17:01:01;;;;;;;8.93;3.40;;;27.50;99.90;;;;;;4985956;28;20440;-60
2022/09/06 17:03:27;;;;;;;9.32;4.20;;;27.50;99.90;;;;;;4972834;28;20898;-60
2022/09/06 17:05:53;;;;;;;15.88;5.07;;;27.20;99.90;;;;;;4969794;28;20387;-59
2022/09/06 17:08:19;;;;;;;11.23;2.70;;;26.80;99.90;;;;;;4970559;28;20487;-61
2022/09/06 17:10:45;;;;;;;7.85;2.75;;;26.50;99.90;;;;;;4970460;28;20475;-64
2022/09/06 17:13:11;;;;;;;8.67;3.00;;;26.40;1.00;;;;;;4975138;28;20878;-60
2022/09/06 17:18:22;;;;;;;12.02;3.63;;;26.00;1.00;;;;;;5009789;28;20831;-60
2022/09/06 17:21:08;;;;;;;7.57;2.95;;;25.90;1.00;;;;;;4983594;28;20460;-64
2022/09/06 17:23:34;;;;;;;8.68;3.28;;;25.80;1.00;;;;;;4970703;28;20435;-60
2022/09/06 17:26:00;;;;;;;9.00;3.23;;;25.70;1.00;;;;;;4970158;28;20388;-60
2022/09/06 17:28:26;;;;;;;9.70;3.10;;;25.60;99.90;;;;;;4970592;28;20432;-61
2022/09/06 17:30:52;;;;;;;11.75;3.45;;;25.50;99.90;;;;;;4969445;28;20389;-60
2022/09/06 17:33:19;;;;;;;11.37;3.10;;;25.30;99.90;;;;;;4973728;28;20876;-60
2022/09/06 17:35:46;;;;;;;11.35;3.60;;;25.30;30.30;;;;;;4978263;28;20407;-65
2022/09/06 17:38:13;;;;;;;9.73;3.47;;;25.30;1.00;;;;;;4974166;28;20423;-60
2022/09/06 17:40:39;;;;;;;7.65;2.97;;;25.20;1.00;;;;;;4977622;28;20403;-60
2022/09/06 17:43:05;;;;;;;9.20;3.22;;;25.10;1.00;;;;;;4975964;28;20523;-60
2022/09/06 17:45:38;;;;;;;7.70;3.17;;;25.00;1.00;;;;;;4980192;28;20888;-60
2022/09/06 17:48:04;;;;;;;10.20;3.30;;;24.90;56.70;;;;;;4982029;28;20396;-60
2022/09/06 17:50:31;;;;;;;7.35;3.13;;;24.80;1.00;;;;;;4982597;28;20465;-60
2022/09/06 17:52:56;;;;;;;8.57;3.13;;;24.70;99.90;;;;;;4983258;28;20462;-60
2022/09/06 17:55:22;;;;;;;8.37;3.10;;;24.60;1.00;;;;;;4981504;28;20390;-60
2022/09/06 17:57:48;;;;;;;10.40;3.25;;;24.60;99.90;;;;;;4982730;28;20412;-63
2022/09/06 18:00:14;;;;;;;10.52;3.08;;;24.60;99.90;;;;;;4982508;28;20430;-59
2022/09/06 18:02:40;;;;;;;10.98;3.10;;;24.50;99.90;;;;;;4977741;28;20861;-60
2022/09/06 18:05:06;;;;;;;9.70;3.43;;;24.50;99.90;;;;;;4992026;28;20478;-60
2022/09/06 18:07:32;;;;;;;8.63;2.90;;;24.40;49.30;;;;;;4990022;28;20483;-60
2022/09/06 18:09:57;;;;;;;8.73;3.10;;;24.40;71.70;;;;;;4980931;28;20485;-59
2022/09/06 18:12:23;;;;;;;10.27;3.70;;;24.40;97.00;;;;;;4981495;28;20491;-60
2022/09/06 18:14:48;;;;;;;8.90;3.70;;;24.20;99.90;;;;;;4982335;28;20761;-63
2022/09/06 18:17:14;;;;;;;11.77;5.00;;;24.00;1.00;;;;;;4981607;28;20389;-59
2022/09/06 18:19:40;;;;;;;9.48;4.22;;;23.90;1.00;;;;;;4981557;28;20922;-61
2022/09/06 18:22:06;;;;;;;9.90;3.80;;;23.80;1.00;;;;;;4981565;28;20891;-59
2022/09/06 18:24:31;;;;;;;9.20;3.70;;;23.80;1.00;;;;;;4979571;28;20415;-60
2022/09/06 18:26:57;;;;;;;11.10;4.30;;;23.80;1.00;;;;;;4978736;28;20408;-61
2022/09/06 18:29:23;;;;;;;9.10;4.10;;;23.70;1.00;;;;;;4978491;28;20453;-60
2022/09/06 18:31:52;;;;;;;9.10;4.53;;;23.60;1.00;;;;;;4978817;28;20418;-63
2022/09/06 18:34:17;;;;;;;9.88;4.57;;;23.50;99.90;;;;;;4979098;28;20392;-59
2022/09/06 18:36:43;;;;;;;9.40;4.35;;;23.40;99.90;;;;;;4977941;28;20453;-59
2022/09/06 18:39:10;;;;;;;10.23;4.10;;;23.20;1.00;;;;;;4977500;28;20388;-58
2022/09/06 18:44:21;;;;;;;11.82;4.18;;;23.10;46.90;;;;;;4981810;28;20425;-59
2022/09/06 18:46:47;;;;;;;10.52;4.30;;;23.00;99.90;;;;;;4985997;28;20406;-63
2022/09/06 18:49:13;;;;;;;10.65;3.90;;;22.90;99.90;;;;;;4983723;28;20391;-60
2022/09/06 18:51:40;;;;;;;11.05;4.60;;;22.80;1.00;;;;;;4976633;28;20419;-60
2022/09/06 18:54:06;;;;;;;10.95;4.55;;;22.70;1.00;;;;;;4980872;28;20905;-59
2022/09/06 18:56:32;;;;;;;10.75;4.88;;;22.70;1.00;;;;;;4976662;28;20419;-58
2022/09/06 18:58:59;;;;;;;12.70;4.83;;;22.80;1.00;;;;;;4981788;28;20390;-61
2022/09/06 19:01:27;;;;;;;11.00;4.57;;;22.80;1.00;;;;;;4981267;28;20560;-60
2022/09/06 19:03:56;;;;;;;10.00;5.30;;;22.90;1.00;;;;;;4981962;28;20810;-60
2022/09/06 19:06:21;;;;;;;10.52;4.50;;;22.90;1.00;;;;;;4979664;28;20393;-59
2022/09/06 19:08:48;;;;;;;9.10;4.40;;;22.90;99.90;;;;;;4982869;28;20808;-62
2022/09/06 19:11:16;;;;;;;8.90;4.00;;;22.90;99.90;;;;;;4982768;28;20423;-59
2022/09/06 19:13:44;;;;;;;8.88;4.03;;;22.70;1.00;;;;;;4962596;28;20430;-59
2022/09/06 19:16:12;;;;;;;10.70;4.32;;;22.40;99.90;;;;;;4979383;28;20404;-59
2022/09/06 19:18:38;;;;;;;8.10;4.00;;;22.20;1.00;;;;;;4981458;28;20871;-58
2022/09/06 19:21:07;;;;;;;8.65;4.18;;;22.10;1.00;;;;;;4979413;28;20421;-59
2022/09/06 19:23:35;;;;;;;11.15;4.40;;;21.90;1.00;;;;;;4981943;28;20462;-58
2022/09/06 19:26:04;;;;;;;10.15;4.88;;;21.80;99.90;;;;;;4977424;28;20413;-59
2022/09/06 19:28:31;;;;;;;10.05;4.72;;;21.80;99.90;;;;;;4979215;28;20487;-59
2022/09/06 19:30:58;;;;;;;12.20;5.38;;;21.80;99.90;;;;;;4977627;28;20416;-59
2022/09/06 19:33:24;;;;;;;9.93;4.90;;;21.80;31.80;;;;;;4975664;28;20778;-59
2022/09/06 19:35:52;;;;;;;12.27;4.70;;;21.60;1.00;;;;;;4976981;28;20406;-61
2022/09/06 19:38:18;;;;;;;11.32;4.60;;;21.20;1.00;;;;;;4975844;28;20481;-59
2022/09/06 19:40:44;;;;;;;12.70;4.60;;;21.50;99.90;;;;;;4981627;28;20396;-59
2022/09/06 19:43:10;;;;;;;10.93;4.80;;;21.50;99.90;;;;;;4979624;28;20463;-59
2022/09/06 19:45:37;;;;;;;12.15;5.25;;;21.50;99.90;;;;;;4981430;28;20397;-59
2022/09/06 19:48:04;;;;;;;11.00;5.00;;;21.40;99.90;;;;;;4975747;28;20466;-67
2022/09/06 19:50:32;;;;;;;12.18;5.20;;;21.50;99.90;;;;;;4973747;28;20443;-64
2022/09/06 19:52:58;;;;;;;10.23;5.25;;;21.50;99.90;;;;;;4970994;28;20503;-65
2022/09/06 19:55:24;;;;;;;10.05;4.68;;;21.50;99.90;;;;;;4976026;28;20877;-65
2022/09/06 19:57:49;;;;;;;10.38;4.80;;;21.30;99.90;;;;;;4978104;28;20836;-62
2022/09/06 20:00:15;;;;;;;12.02;5.45;;;21.20;99.90;;;;;;4971560;28;20388;-64
2022/09/06 20:02:41;;;;;;;9.93;4.60;;;21.10;99.90;;;;;;4980986;28;20436;-64
2022/09/06 20:05:07;;;;;;;12.00;4.40;;;21.20;99.90;;;;;;4970713;28;20403;-65
2022/09/06 20:07:33;;;;;;;10.35;4.32;;;21.20;99.90;;;;;;4971237;28;20403;-64
2022/09/06 20:09:58;;;;;;;10.63;4.50;;;21.20;99.90;;;;;;4969801;28;20388;-65
2022/09/06 20:12:24;;;;;;;9.30;4.20;;;21.20;99.90;;;;;;4970821;28;20746;-65
2022/09/06 20:14:50;;;;;;;12.35;4.60;;;21.00;99.90;;;;;;4980191;28;20401;-62
2022/09/06 20:17:15;;;;;;;10.20;4.47;;;21.00;1.00;;;;;;4979512;28;20428;-64
2022/09/06 20:19:41;;;;;;;10.55;4.70;;;21.10;1.00;;;;;;4980337;28;20935;-65
2022/09/06 20:22:06;;;;;;;10.87;4.40;;;21.10;1.00;;;;;;4978702;28;20814;-64
2022/09/06 20:24:32;;;;;;;11.30;4.33;;;21.00;1.00;;;;;;4977988;28;20414;-65
2022/09/06 20:26:58;;;;;;;13.60;4.80;;;21.10;1.00;;;;;;4977742;28;20877;-65
2022/09/06 20:29:23;;;;;;;11.67;5.10;;;21.10;1.00;;;;;;4980997;28;20445;-65
2022/09/06 20:31:49;;;;;;;11.83;4.57;;;21.20;1.00;;;;;;4979917;28;20420;-62
2022/09/06 20:34:17;;;;;;;11.85;4.30;;;21.10;99.90;;;;;;4981425;28;20383;-65
2022/09/06 20:36:43;;;;;;;11.80;4.30;;;21.10;99.90;;;;;;4980293;28;20401;-65
2022/09/06 20:39:09;;;;;;;8.77;4.20;;;21.10;1.00;;;;;;4979243;28;20963;-64
2022/09/06 20:41:35;;;;;;;12.48;5.20;;;21.10;1.00;;;;;;4980997;28;20418;-64
2022/09/06 20:44:00;;;;;;;9.40;4.30;;;21.10;1.00;;;;;;4981385;28;20393;-64
2022/09/06 20:46:29;;;;;;;10.50;4.47;;;21.00;1.00;;;;;;4981046;28;20495;-64
2022/09/06 20:48:56;;;;;;;9.85;4.60;;;21.00;1.00;;;;;;4978439;28;20383;-65
2022/09/06 20:51:24;;;;;;;7.95;4.05;;;21.00;1.00;;;;;;4978327;28;20967;-65
2022/09/06 20:53:55;;;;;;;9.52;4.50;;;20.90;1.00;;;;;;4979560;28;20411;-62
2022/09/06 20:56:24;;;;;;;11.97;5.10;;;20.90;1.00;;;;;;4978897;28;20451;-65
2022/09/06 20:58:54;;;;;;;9.32;4.60;;;20.70;1.00;;;;;;4979610;28;20390;-62
2022/09/06 21:01:23;;;;;;;7.88;3.90;;;20.80;1.00;;;;;;4977730;28;20431;-65
2022/09/06 21:03:51;;;;;;;9.32;4.40;;;20.80;1.00;;;;;;4979781;28;20476;-62
2022/09/06 21:06:17;;;;;;;11.40;4.10;;;20.70;1.00;;;;;;4980720;28;20393;-65
2022/09/06 21:08:43;;;;;;;10.50;4.50;;;20.70;1.00;;;;;;4979124;28;20430;-65
2022/09/06 21:11:09;;;;;;;9.70;4.40;;;20.70;1.00;;;;;;4979270;28;20473;-64
2022/09/06 21:13:35;;;;;;;10.37;4.10;;;20.80;1.00;;;;;;4980555;28;20450;-65
2022/09/06 21:16:01;;;;;;;10.73;4.80;;;21.00;99.90;;;;;;4978278;28;20884;-65
2022/09/06 21:18:28;;;;;;;10.40;4.50;;;21.10;99.90;;;;;;4978481;28;20446;-64
2022/09/06 21:20:58;;;;;;;9.65;3.85;;;21.00;99.90;;;;;;4978641;28;20509;-64
2022/09/06 21:23:25;;;;;;;9.07;4.20;;;21.00;99.90;;;;;;4984927;28;20426;-64
2022/09/06 21:25:56;;;;;;;8.77;4.28;;;21.10;99.90;;;;;;4983592;28;20399;-62
2022/09/06 21:28:22;;;;;;;10.25;4.30;;;21.10;99.90;;;;;;4980819;28;20760;-65
2022/09/06 21:30:58;;;;;;;8.27;3.90;;;21.10;99.90;;;;;;4983709;28;20860;-64
2022/09/06 21:33:26;;;;;;;10.00;4.17;;;21.20;99.90;;;;;;4983105;28;20455;-64
2022/09/06 21:35:52;;;;;;;9.50;4.00;;;21.10;99.90;;;;;;4982490;28;20469;-62
2022/09/06 21:38:17;;;;;;;10.20;4.27;;;21.40;99.90;;;;;;4984421;28;20462;-64
2022/09/06 21:40:43;;;;;;;8.33;3.73;;;21.00;99.90;;;;;;4982086;28;20424;-64
2022/09/06 21:43:09;;;;;;;10.60;4.23;;;20.90;99.90;;;;;;4983998;28;20507;-64
2022/09/06 21:45:36;;;;;;;9.70;4.20;;;20.80;1.00;;;;;;4983934;28;20393;-64
2022/09/06 21:48:02;;;;;;;9.30;4.20;;;20.70;1.00;;;;;;4978406;28;20386;-64
2022/09/06 21:50:31;;;;;;;13.33;4.80;;;20.70;1.00;;;;;;4983065;28;20505;-64
2022/09/06 21:52:56;;;;;;;9.77;4.18;;;20.60;1.00;;;;;;4981726;28;20399;-63
2022/09/06 21:55:22;;;;;;;9.20;4.40;;;20.70;1.00;;;;;;4982100;28;20874;-63
2022/09/06 21:57:49;;;;;;;8.97;4.63;;;20.60;1.00;;;;;;4984545;28;20845;-63
2022/09/06 22:00:14;;;;;;;10.30;4.32;;;20.60;1.00;;;;;;4980510;28;20960;-63
2022/09/06 22:02:41;;;;;;;10.10;4.28;;;20.40;1.00;;;;;;4983714;28;20513;-63
2022/09/06 22:05:08;;;;;;;10.17;4.83;;;20.40;1.00;;;;;;4982277;28;20452;-64
2022/09/06 22:07:35;;;;;;;8.77;4.47;;;20.40;1.00;;;;;;4981748;28;20996;-63
2022/09/06 22:10:01;;;;;;;10.20;4.70;;;20.40;1.00;;;;;;4982650;28;20523;-64
2022/09/06 22:12:27;;;;;;;9.38;4.80;;;20.40;1.00;;;;;;4982625;28;20531;-63
2022/09/06 22:14:53;;;;;;;9.48;3.90;;;20.40;1.00;;;;;;4972777;28;20401;-61
2022/09/06 22:17:19;;;;;;;9.98;4.72;;;20.40;1.00;;;;;;4973761;28;20392;-64
2022/09/06 22:19:44;;;;;;;9.82;4.20;;;20.40;1.00;;;;;;4973166;28;20498;-64
2022/09/06 22:22:10;;;;;;;9.30;4.03;;;20.40;1.00;;;;;;4972911;28;20420;-64
2022/09/06 22:24:35;;;;;;;10.00;4.50;;;20.40;1.00;;;;;;4973501;28;20431;-64
2022/09/06 22:27:01;;;;;;;10.40;4.60;;;20.40;1.00;;;;;;4972782;28;20392;-64
2022/09/06 22:29:27;;;;;;;9.20;4.90;;;20.30;1.00;;;;;;4975115;28;20412;-64
2022/09/06 22:31:53;;;;;;;11.45;4.80;;;20.30;1.00;;;;;;4981183;28;20906;-62
2022/09/06 22:34:19;;;;;;;12.07;5.00;;;20.20;1.00;;;;;;4972362;28;20874;-64
2022/09/06 22:36:45;;;;;;;10.50;4.90;;;20.10;1.00;;;;;;4973406;28;20393;-64
2022/09/06 22:39:10;;;;;;;9.75;4.82;;;20.10;1.00;;;;;;4973213;28;20384;-64
2022/09/06 22:41:36;;;;;;;9.27;4.67;;;20.10;1.00;;;;;;4973077;28;20419;-64